createdAt,value
2019-03-15T00:03:58.522Z,87.89
2019-03-15T00:06:26.905Z,87.69
2019-03-15T00:08:55.142Z,87.37
2019-03-15T00:14:25.852Z,86.85
2019-03-15T00:20:07.169Z,86.78
2019-03-15T00:22:35.180Z,87.09
2019-03-15T00:25:03.462Z,87.08
2019-03-15T00:27:31.440Z,86.56
2019-03-15T00:29:59.651Z,86.52
2019-03-15T00:32:27.194Z,86.50
2019-03-15T00:34:55.782Z,86.60
2019-03-15T00:37:24.296Z,86.44
2019-03-15T00:39:52.876Z,86.46
2019-03-15T00:42:20.765Z,86.31
2019-03-15T00:44:48.749Z,87.11
2019-03-15T00:47:17.400Z,86.46
2019-03-15T00:49:47.079Z,86.00
2019-03-15T00:52:15.355Z,85.85
2019-03-15T00:54:43.180Z,85.88
2019-03-15T00:57:11.439Z,86.24
2019-03-15T00:59:39.931Z,86.19
2019-03-15T01:02:08.466Z,85.86
2019-03-15T01:04:37.092Z,86.20
2019-03-15T01:07:05.695Z,85.60
2019-03-15T01:09:34.230Z,85.60
2019-03-15T01:12:02.362Z,85.47
2019-03-15T01:14:30.227Z,85.02
2019-03-15T01:16:58.486Z,84.85
2019-03-15T01:19:26.392Z,83.93
2019-03-15T01:21:54.609Z,83.52
2019-03-15T01:24:22.903Z,82.86
2019-03-15T01:26:51.582Z,83.04
2019-03-15T01:29:20.790Z,82.34
2019-03-15T01:31:49.129Z,82.39
2019-03-15T01:34:17.007Z,83.29
2019-03-15T01:36:45.288Z,83.01
2019-03-15T01:39:13.465Z,83.77
2019-03-15T01:41:41.980Z,83.07
2019-03-15T01:44:10.162Z,83.35
2019-03-15T01:46:38.831Z,83.69
2019-03-15T01:49:08.192Z,83.06
2019-03-15T01:51:47.356Z,83.21
2019-03-15T01:54:15.959Z,83.35
2019-03-15T01:56:44.132Z,83.16
2019-03-15T01:59:11.987Z,82.73
2019-03-15T02:01:40.193Z,83.04
2019-03-15T02:04:08.682Z,83.61
2019-03-15T02:06:36.659Z,83.30
2019-03-15T02:12:06.811Z,83.36
2019-03-15T02:14:35.153Z,83.34
2019-03-15T02:17:03.904Z,83.38
2019-03-15T02:19:32.625Z,83.14
2019-03-15T02:22:00.836Z,83.24
2019-03-15T02:24:29.505Z,83.63
2019-03-15T02:26:57.828Z,83.72
2019-03-15T02:29:26.470Z,83.93
2019-03-15T02:31:55.072Z,83.79
2019-03-15T02:34:23.243Z,84.09
2019-03-15T02:36:51.727Z,83.93
2019-03-15T02:39:20.236Z,84.02
2019-03-15T02:41:48.826Z,84.32
2019-03-15T02:44:17.304Z,84.27
2019-03-15T02:46:45.577Z,84.09
2019-03-15T02:49:13.456Z,83.98
2019-03-15T02:51:42.037Z,84.24
2019-03-15T02:54:09.961Z,83.72
2019-03-15T02:56:38.207Z,83.46
2019-03-15T02:59:06.812Z,83.62
2019-03-15T03:01:35.373Z,83.70
2019-03-15T03:04:03.957Z,83.95
2019-03-15T03:06:32.204Z,83.53
2019-03-15T03:09:00.412Z,83.73
2019-03-15T03:11:28.926Z,83.50
2019-03-15T03:13:57.499Z,83.75
2019-03-15T03:16:25.782Z,83.76
2019-03-15T03:18:54.388Z,83.58
2019-03-15T03:21:22.970Z,83.46
2019-03-15T03:23:51.466Z,83.64
2019-03-15T03:26:19.727Z,83.55
2019-03-15T03:28:48.350Z,83.31
2019-03-15T03:31:17.096Z,83.33
2019-03-15T03:33:45.406Z,83.37
2019-03-15T03:36:14.091Z,82.62
2019-03-15T03:38:42.247Z,82.67
2019-03-15T03:41:10.457Z,82.63
2019-03-15T03:43:38.403Z,82.77
2019-03-15T03:46:18.775Z,82.82
2019-03-15T03:51:50.025Z,83.59
2019-03-15T03:54:49.515Z,83.86
2019-03-15T03:57:17.922Z,83.39
2019-03-15T03:59:45.800Z,83.27
2019-03-15T04:02:14.322Z,83.48
2019-03-15T04:04:42.911Z,82.54
2019-03-15T04:07:11.251Z,82.29
2019-03-15T04:09:39.493Z,82.96
2019-03-15T04:12:07.855Z,83.41
2019-03-15T04:14:36.092Z,83.45
2019-03-15T04:17:44.677Z,83.87
2019-03-15T04:20:13.091Z,83.20
2019-03-15T04:22:41.570Z,83.76
2019-03-15T04:25:10.152Z,83.75
2019-03-15T04:27:38.642Z,83.78
2019-03-15T04:30:08.729Z,83.31
2019-03-15T04:32:43.802Z,82.84
2019-03-15T04:35:12.182Z,83.36
2019-03-15T04:38:20.533Z,83.32
2019-03-15T04:41:08.101Z,83.84
2019-03-15T04:43:36.383Z,84.23
2019-03-15T04:46:04.561Z,84.97
2019-03-15T04:49:12.906Z,85.00
2019-03-15T04:51:41.151Z,85.31
2019-03-15T04:54:09.012Z,84.78
2019-03-15T04:56:37.293Z,85.14
2019-03-15T04:59:05.892Z,84.60
2019-03-15T05:01:34.116Z,84.39
2019-03-15T05:04:02.053Z,84.30
2019-03-15T05:06:29.983Z,84.28
2019-03-15T05:08:58.607Z,83.58
2019-03-15T05:11:27.322Z,83.87
2019-03-15T05:13:58.645Z,83.81
2019-03-15T05:16:36.160Z,83.38
2019-03-15T05:19:04.997Z,83.40
2019-03-15T05:21:33.391Z,83.13
2019-03-15T05:24:01.357Z,82.77
2019-03-15T05:26:29.946Z,82.96
2019-03-15T05:28:58.368Z,82.96
2019-03-15T05:31:26.951Z,82.69
2019-03-15T05:33:55.141Z,82.75
2019-03-15T05:36:23.775Z,83.07
2019-03-15T05:38:52.124Z,83.55
2019-03-15T05:41:20.468Z,83.62
2019-03-15T05:43:49.006Z,83.77
2019-03-15T05:46:17.674Z,84.25
2019-03-15T05:48:57.573Z,84.60
2019-03-15T05:51:25.892Z,85.43
2019-03-15T05:53:54.501Z,86.06
2019-03-15T05:59:41.093Z,88.72
2019-03-15T06:02:09.107Z,89.53
2019-03-15T06:04:37.264Z,89.99
2019-03-15T06:07:05.657Z,90.47
2019-03-15T06:09:45.936Z,89.98
2019-03-15T06:12:14.496Z,90.07
2019-03-15T06:14:42.091Z,90.34
2019-03-15T06:17:10.846Z,90.48
2019-03-15T06:19:39.032Z,90.81
2019-03-15T06:22:07.664Z,90.32
2019-03-15T06:24:36.464Z,90.47
2019-03-15T06:27:04.320Z,90.07
2019-03-15T06:29:33.001Z,90.41
2019-03-15T06:32:01.278Z,90.81
2019-03-15T06:34:28.917Z,91.20
2019-03-15T06:36:56.786Z,91.79
2019-03-15T06:39:25.094Z,91.74
2019-03-15T06:41:53.805Z,92.08
2019-03-15T06:47:24.515Z,92.37
2019-03-15T06:49:52.780Z,92.25
2019-03-15T06:56:01.391Z,91.19
2019-03-15T06:58:41.527Z,91.44
2019-03-15T07:04:11.231Z,91.36
2019-03-15T07:06:39.563Z,91.25
2019-03-15T07:09:19.832Z,91.81
2019-03-15T07:15:09.747Z,92.04
2019-03-15T07:17:37.770Z,92.04
2019-03-15T07:23:07.797Z,92.12
2019-03-15T07:25:36.376Z,92.24
2019-03-15T07:31:06.298Z,92.13
2019-03-15T07:33:34.327Z,92.52
2019-03-15T07:36:02.977Z,92.20
2019-03-15T07:38:30.826Z,92.24
2019-03-15T07:40:59.114Z,92.21
2019-03-15T07:46:35.933Z,92.34
2019-03-15T07:49:03.900Z,92.62
2019-03-15T07:52:04.101Z,92.95
2019-03-15T07:57:53.154Z,92.64
2019-03-15T08:00:21.415Z,92.62
2019-03-15T08:02:49.398Z,92.54
2019-03-15T08:05:17.695Z,92.87
2019-03-15T08:07:58.006Z,92.94
2019-03-15T08:10:26.643Z,93.14
2019-03-15T08:13:35.233Z,93.09
2019-03-15T08:16:03.525Z,92.93
2019-03-15T08:18:31.768Z,93.13
2019-03-15T08:24:01.208Z,92.88
2019-03-15T08:29:31.744Z,93.07
2019-03-15T08:32:00.310Z,93.11
2019-03-15T08:35:08.526Z,93.18
2019-03-15T08:37:36.748Z,93.21
2019-03-15T08:40:45.551Z,93.39
2019-03-15T08:43:13.767Z,93.39
2019-03-15T08:46:22.325Z,93.23
2019-03-15T08:48:50.582Z,93.20
2019-03-15T08:51:18.563Z,93.34
2019-03-15T08:53:46.549Z,93.27
2019-03-15T08:56:21.073Z,93.79
2019-03-15T08:59:00.934Z,93.20
2019-03-15T09:01:29.509Z,93.13
2019-03-15T09:03:58.074Z,93.18
2019-03-15T09:06:25.968Z,93.59
2019-03-15T09:08:54.309Z,93.42
2019-03-15T09:11:23.154Z,93.39
2019-03-15T09:14:31.861Z,93.38
2019-03-15T09:16:59.767Z,93.42
2019-03-15T09:19:47.478Z,93.60
2019-03-15T09:22:16.250Z,93.61
2019-03-15T09:28:24.182Z,93.97
2019-03-15T09:30:52.120Z,94.12
2019-03-15T09:33:20.420Z,93.92
2019-03-15T09:48:04.619Z,94.73
2019-03-15T09:50:51.042Z,94.90
2019-03-15T09:53:14.719Z,94.69
2019-03-15T09:55:43.073Z,94.87
2019-03-15T10:01:35.057Z,94.92
2019-03-15T10:04:11.488Z,94.95
2019-03-15T10:06:51.938Z,95.56
2019-03-15T10:09:45.930Z,95.46
2019-03-15T10:18:56.770Z,93.07
2019-03-15T10:27:46.303Z,91.69
2019-03-15T10:30:15.067Z,91.98
2019-03-15T10:32:43.444Z,90.77
2019-03-15T10:35:11.989Z,90.62
2019-03-15T10:37:39.829Z,91.04
2019-03-15T10:40:10.554Z,91.40
2019-03-15T10:42:39.187Z,90.83
2019-03-15T10:45:48.302Z,90.70
2019-03-15T10:48:24.981Z,90.91
2019-03-15T10:54:02.425Z,90.95
2019-03-15T10:56:30.905Z,90.56
2019-03-15T11:02:00.399Z,91.20
2019-03-15T11:05:08.634Z,90.76
2019-03-15T11:13:39.194Z,91.09
2019-03-15T11:16:06.773Z,91.23
2019-03-15T11:18:35.103Z,91.48
2019-03-15T11:21:15.111Z,91.84
2019-03-15T11:24:23.762Z,91.83
2019-03-15T11:30:12.931Z,91.96
2019-03-15T11:32:40.487Z,92.75
2019-03-15T11:38:09.179Z,92.74
2019-03-15T11:40:38.199Z,92.87
2019-03-15T11:45:56.865Z,92.74
2019-03-15T11:48:24.727Z,92.74
2019-03-15T11:51:33.312Z,92.62
2019-03-15T11:54:01.295Z,93.14
2019-03-15T11:57:09.662Z,92.84
2019-03-15T11:59:38.273Z,93.06
2019-03-15T12:02:05.758Z,92.75
2019-03-15T12:04:34.329Z,93.17
2019-03-15T12:07:02.739Z,92.91
2019-03-15T12:09:31.334Z,92.88
2019-03-15T12:15:01.959Z,92.83
2019-03-15T12:17:30.263Z,92.40
2019-03-15T12:19:58.517Z,92.36
2019-03-15T12:31:30.875Z,93.16
2019-03-15T12:33:59.217Z,93.05
2019-03-15T12:36:27.630Z,92.52
2019-03-15T12:38:58.469Z,92.24
2019-03-15T12:41:36.122Z,92.03
2019-03-15T12:47:58.194Z,92.58
2019-03-15T12:50:26.919Z,92.51
2019-03-15T12:53:35.166Z,92.63
2019-03-15T12:59:23.212Z,91.59
2019-03-15T13:01:51.689Z,91.84
2019-03-15T13:04:20.318Z,91.72
2019-03-15T13:06:48.803Z,91.31
2019-03-15T13:09:17.449Z,91.11
2019-03-15T13:12:05.218Z,91.15
2019-03-15T13:20:48.037Z,91.52
2019-03-15T13:23:56.687Z,91.43
2019-03-15T13:26:24.853Z,91.20
2019-03-15T13:28:52.745Z,91.26
2019-03-15T13:34:42.488Z,91.03
2019-03-15T13:37:10.425Z,90.87
2019-03-15T13:40:09.540Z,90.85
2019-03-15T13:48:49.456Z,90.21
2019-03-15T13:54:38.459Z,90.69
2019-03-15T13:57:06.758Z,90.41
2019-03-15T13:59:54.820Z,90.21
2019-03-15T14:06:03.082Z,90.41
2019-03-15T14:12:03.465Z,90.14
2019-03-15T14:17:32.524Z,90.15
2019-03-15T14:20:09.152Z,89.71
2019-03-15T14:22:37.720Z,89.50
2019-03-15T14:25:07.169Z,89.45
2019-03-15T14:27:37.773Z,88.91
2019-03-15T14:33:13.982Z,88.92
2019-03-15T14:35:42.575Z,88.87
2019-03-15T14:38:11.340Z,88.52
2019-03-15T14:40:39.665Z,88.74
2019-03-15T14:43:08.327Z,88.94
2019-03-15T14:45:37.570Z,88.99
2019-03-15T14:48:06.273Z,88.81
2019-03-15T14:50:33.483Z,88.16
2019-03-15T14:53:01.055Z,88.18
2019-03-15T14:55:29.260Z,87.15
2019-03-15T14:57:59.924Z,87.64
2019-03-15T15:00:34.259Z,87.42
2019-03-15T15:03:02.823Z,87.45
2019-03-15T15:05:31.156Z,87.36
2019-03-15T15:07:59.434Z,86.26
2019-03-15T15:10:27.755Z,86.43
2019-03-15T15:12:55.969Z,86.80
2019-03-15T15:15:24.798Z,86.84
2019-03-15T15:17:52.784Z,86.51
2019-03-15T15:20:21.418Z,85.98
2019-03-15T15:25:49.871Z,85.99
2019-03-15T15:28:18.704Z,87.03
2019-03-15T15:30:47.255Z,85.02
2019-03-15T15:33:15.491Z,85.45
2019-03-15T15:35:43.353Z,85.67
2019-03-15T15:38:12.143Z,86.28
2019-03-15T15:40:39.644Z,86.26
2019-03-15T15:43:48.009Z,85.62
2019-03-15T15:49:38.213Z,85.94
2019-03-15T15:52:06.990Z,85.90
2019-03-15T15:54:35.419Z,86.02
2019-03-15T15:57:03.620Z,85.79
2019-03-15T15:59:32.239Z,85.89
2019-03-15T16:02:00.891Z,86.00
2019-03-15T16:04:29.718Z,85.86
2019-03-15T16:06:57.986Z,86.13
2019-03-15T16:09:26.698Z,86.01
2019-03-15T16:11:55.406Z,85.68
2019-03-15T16:14:24.131Z,85.57
2019-03-15T16:16:52.000Z,85.85
2019-03-15T16:19:20.545Z,86.01
2019-03-15T16:21:48.045Z,85.79
2019-03-15T16:24:16.465Z,85.78
2019-03-15T16:26:45.185Z,86.39
2019-03-15T16:29:13.206Z,85.79
2019-03-15T16:31:42.129Z,85.79
2019-03-15T16:34:11.001Z,86.12
2019-03-15T16:36:39.276Z,86.20
2019-03-15T16:39:07.579Z,86.11
2019-03-15T16:41:35.695Z,86.87
2019-03-15T16:44:03.714Z,87.77
2019-03-15T16:47:12.071Z,88.06
2019-03-15T16:49:39.995Z,88.05
2019-03-15T16:52:08.644Z,88.49
2019-03-15T16:54:36.571Z,88.87
2019-03-15T16:57:04.951Z,89.01
2019-03-15T17:00:13.664Z,88.96
2019-03-15T17:02:41.995Z,89.21
2019-03-15T17:05:10.015Z,88.88
2019-03-15T17:07:38.091Z,88.89
2019-03-15T17:10:06.852Z,89.00
2019-03-15T17:12:35.154Z,88.67
2019-03-15T17:15:03.422Z,88.78
2019-03-15T17:17:31.719Z,88.01
2019-03-15T17:19:59.585Z,88.12
2019-03-15T17:22:28.005Z,87.95
2019-03-15T17:24:56.252Z,87.49
2019-03-15T17:27:24.983Z,87.65
2019-03-15T17:29:53.329Z,87.28
2019-03-15T17:32:22.009Z,87.16
2019-03-15T17:34:50.312Z,86.70
2019-03-15T17:37:18.587Z,86.25
2019-03-15T17:39:47.409Z,86.32
2019-03-15T17:42:15.968Z,86.61
2019-03-15T17:44:44.685Z,86.40
2019-03-15T17:47:13.267Z,86.58
2019-03-15T17:49:41.624Z,87.17
2019-03-15T17:52:10.115Z,86.17
2019-03-15T17:54:38.910Z,86.02
2019-03-15T18:00:48.467Z,86.47
2019-03-15T18:03:57.274Z,86.19
2019-03-15T18:06:25.519Z,86.23
2019-03-15T18:08:53.836Z,86.50
2019-03-15T18:11:22.386Z,86.17
2019-03-15T18:14:30.754Z,86.38
2019-03-15T18:16:59.215Z,86.40
2019-03-15T18:19:28.077Z,86.37
2019-03-15T18:21:56.664Z,86.36
2019-03-15T18:24:25.333Z,86.19
2019-03-15T18:26:54.096Z,86.37
2019-03-15T18:29:26.623Z,86.10
2019-03-15T18:32:02.384Z,85.89
2019-03-15T18:34:31.000Z,86.11
2019-03-15T18:36:58.590Z,86.01
2019-03-15T18:39:26.998Z,85.27
2019-03-15T18:42:35.003Z,85.52
2019-03-15T18:45:03.004Z,84.96
2019-03-15T18:47:31.875Z,85.02
2019-03-15T18:50:01.036Z,84.70
2019-03-15T18:52:29.351Z,84.50
2019-03-15T18:54:57.078Z,84.60
2019-03-15T18:57:25.504Z,84.07
2019-03-15T18:59:54.294Z,84.16
2019-03-15T19:02:22.974Z,84.32
2019-03-15T19:04:51.394Z,84.46
2019-03-15T19:07:19.368Z,84.54
2019-03-15T19:09:47.744Z,84.61
2019-03-15T19:12:16.451Z,84.54
2019-03-15T19:14:45.037Z,84.57
2019-03-15T19:17:13.306Z,84.65
2019-03-15T19:19:42.023Z,84.81
2019-03-15T19:22:10.940Z,84.71
2019-03-15T19:24:38.535Z,84.73
2019-03-15T19:27:06.852Z,84.52
2019-03-15T19:29:34.763Z,84.22
2019-03-15T19:32:03.210Z,84.42
2019-03-15T19:34:31.385Z,84.85
2019-03-15T19:37:00.941Z,84.60
2019-03-15T19:39:36.385Z,84.59
2019-03-15T19:42:05.152Z,84.60
2019-03-15T19:44:33.651Z,85.21
2019-03-15T19:50:44.299Z,84.53
2019-03-15T19:53:13.078Z,84.57
2019-03-15T19:55:41.061Z,84.91
2019-03-15T19:58:09.419Z,84.42
2019-03-15T20:00:37.659Z,84.54
2019-03-15T20:03:06.517Z,84.89
2019-03-15T20:05:35.257Z,85.10
2019-03-15T20:08:04.046Z,85.62
2019-03-15T20:10:32.890Z,85.57
2019-03-15T20:13:02.775Z,86.48
2019-03-15T20:15:31.203Z,86.72
2019-03-15T20:17:59.838Z,87.01
2019-03-15T20:20:28.587Z,87.40
2019-03-15T20:22:58.461Z,87.73
2019-03-15T20:25:26.510Z,88.11
2019-03-15T20:27:55.225Z,88.34
2019-03-15T20:30:26.181Z,88.57
2019-03-15T20:32:59.558Z,88.39
2019-03-15T20:36:07.909Z,88.96
2019-03-15T20:38:36.370Z,89.23
2019-03-15T20:41:05.116Z,89.88
2019-03-15T20:43:33.060Z,89.81
2019-03-15T20:46:01.646Z,90.05
2019-03-15T20:48:30.227Z,90.46
2019-03-15T20:51:17.925Z,90.45
2019-03-15T20:53:57.721Z,90.23
2019-03-15T20:56:26.290Z,90.37
2019-03-15T20:59:34.599Z,90.54
2019-03-15T21:02:03.251Z,90.41
2019-03-15T21:04:31.578Z,90.08
2019-03-15T21:07:00.264Z,89.67
2019-03-15T21:09:28.951Z,89.85
2019-03-15T21:14:58.688Z,90.28
2019-03-15T21:17:26.555Z,89.99
2019-03-15T21:22:56.636Z,89.05
2019-03-15T21:25:25.155Z,89.28
2019-03-15T21:27:54.791Z,89.24
2019-03-15T21:30:22.721Z,88.67
2019-03-15T21:32:50.769Z,88.75
2019-03-15T21:35:19.374Z,88.11
2019-03-15T21:37:48.068Z,88.22
2019-03-15T21:40:16.389Z,88.54
2019-03-15T21:42:44.991Z,88.28
2019-03-15T21:45:12.933Z,88.40
2019-03-15T21:47:41.157Z,88.02
2019-03-15T21:50:11.122Z,88.28
2019-03-15T21:52:39.535Z,88.24
2019-03-15T21:55:07.939Z,88.13
2019-03-15T22:00:40.614Z,87.35
2019-03-15T22:06:28.491Z,87.00
2019-03-15T22:09:16.730Z,86.61
2019-03-15T22:12:04.744Z,86.86
2019-03-15T22:14:33.509Z,87.17
2019-03-15T22:17:21.454Z,87.16
2019-03-15T22:20:01.751Z,87.11
2019-03-15T22:22:31.394Z,87.61
2019-03-15T22:25:19.110Z,87.49
2019-03-15T22:27:50.100Z,87.67
2019-03-15T22:30:25.169Z,87.77
2019-03-15T22:32:53.966Z,87.87
2019-03-15T22:35:22.440Z,87.74
2019-03-15T22:38:30.815Z,87.94
2019-03-15T22:41:18.715Z,88.54
2019-03-15T22:44:06.965Z,87.83
2019-03-15T22:46:37.009Z,86.88
2019-03-15T22:49:04.923Z,87.43
2019-03-15T22:54:55.674Z,87.79
2019-03-15T22:57:24.443Z,87.75
2019-03-15T22:59:53.522Z,87.95
2019-03-15T23:02:42.303Z,87.57
2019-03-15T23:05:11.637Z,87.79
2019-03-15T23:07:59.575Z,87.79
2019-03-15T23:10:28.816Z,87.90
2019-03-15T23:13:16.600Z,87.98
2019-03-15T23:15:57.494Z,87.48
2019-03-15T23:18:27.246Z,87.28
2019-03-15T23:21:14.694Z,87.44
2019-03-15T23:24:02.363Z,87.00
2019-03-15T23:26:31.470Z,86.96
2019-03-15T23:32:05.121Z,86.78
2019-03-15T23:34:34.016Z,87.15
2019-03-15T23:37:02.942Z,86.96
2019-03-15T23:39:32.527Z,87.05
2019-03-15T23:42:01.942Z,86.92
2019-03-15T23:44:30.537Z,86.80
2019-03-15T23:50:18.399Z,87.70
2019-03-15T23:53:06.416Z,88.06
2019-03-15T23:55:35.013Z,88.02
2019-03-15T23:58:03.570Z,88.58
